Relevés horaires Koksijde (Belgique)


Relevés horaires à Koksijde - Mercredi 25 Mai 2022
Heure UTC1 Température [°C] Vent [km/h] Hum. [%] Pres.4 [hPa] Visi. [Km] Nébu. [octa] Préc.5 [mm] Cond.
2m. Res. Ros. Dir.2 Vit. Moy. Raf.3
23:00 13.6 13.3 11.7 OSO 7.4 -- 14.8 88 1018.2(1.3/3h) 12 -- -- --
22:00 13.6 13 11.8 SO 9.3 -- 14.8 89 1017.7(1.3/3h) 11 -- -- --
21:00 14.1 13.6 11.7 SO 9.3 -- 22.2 85 1017.5(1.2/3h) 14 -- -- NA
20:00 14.1 13.6 11.8 SO 9.3 -- 20.4 86 1016.7(0.9/3h) 17 -- -- --
19:00 14.1 13.4 11.6 SO 11.1 -- 22.2 85 1016.3(0.3/3h) 16 -- -- NA
18:00 14.3 13.6 11.4 OSO 11.1 -- 27.8 83 1016.2(0.2/3h) 17 -- 0.1/12h
NA
17:00 14.3 13.6 11.0 SO 11.1 -- 22.2 81 1015.8(0.1/3h) 20 -- -- NA
16:00 13.8 13 11.2 SO 11.1 -- 27.8 84 1016(0.4/3h) 17 -- -- NA
15:00 14.8 13.7 9.5 SO 16.7 -- 27.8 71 1015.8(0.3/3h) 20 7/8 -- --
14:00 15.8 15.1 9.3 OSO 14.8 -- 25.9 65 1015.7(0.1/3h) 20 7/8 -- --
13:00 15.8 15.1 8.9 OSO 14.8 -- 24.1 64 1015.6(0.3/3h) 20 7/8 -- --
12:00 15.8 15.1 8.6 SO 14.8 -- 24.1 62 1015.5(0.4/3h) 20 7/8 -- --
11:00 16.1 15.6 8.0 SO 13.0 -- 24.1 59 1015.6(0.4/3h) 20 7/8 -- --
10:00 16.0 15.3 8.2 OSO 14.8 -- 24.1 60 1015.2(0.8/3h) 20 7/8 -- --
09:00 15.8 15.4 7.9 SO 11.1 -- 20.4 59 1015.1(0.8/3h) 15 5/8 -- --
08:00 14.8 14.5 9.6 OSO 9.3 -- 16.7 71 1015.1(1.4/3h) 15 2/8 -- --
07:00 13.6 13 9.3 SO 9.3 -- 14.8 75 1014.5(0.8/3h) 20 -- -- --
06:00 11.9 11.8 10.7 SO 5.6 -- 9.3 92 1014.2(0.7/3h) 10 3/8 -- --
05:00 9.7 9.2 9.2 SSO 5.6 -- 9.3 97 1013.6(0.6/3h) 8 3/8 -- --
04:00 8.7 8.1 8.3 SO 5.6 -- 9.3 97 1013.7(1.0/3h) 7 -- -- --
03:00 9.2 8.7 8.6 SO 5.6 -- 9.3 96 1013.3(0.8/3h) 9 -- -- --
02:00 8.3 8.3 7.8 SSO 3.7 -- 7.4 97 1012.8(0.5/3h) 6 -- -- --
01:00 9.0 9.0 8.3 SSO 3.7 -- 7.4 95 1012.6(0.5/3h) 8 -- -- --
00:00 9.3 9.3 8.6 SSO 3.7 -- 16.7 95 1012.5(0.6/3h) 11 -- -- --

1 Coordinated Universal Time. Actuellement il est 11:00 locale et 09:00 UTC.

2 Le vent souffle depuis la direction indiquée vers la direction oposée.

3 Les rafales max. sont disponible 40 min après l'heure du relevé.

4 Pour les stations d'altitude (plus de 600m) le géopotentiel du niveau le plus proche de la pression obligatoire est indiqué.

5 Les stations disposant d'un diffuseur peuvent indiquer "trace". Cela signifie que des précipitations ont touchés le sol mais que la quantité est inférieure à 0.1 mm.

Récapitulatif de la journée
Température [°C] Vent [km/h] Ensoleillement4 [h] Precipitations totale5 [mm] Pression [Hpa]
Min1 Max.2 Moy.3 Max. Min Max.
8.3 16.7 0 27.8 0 h 0 min 0 1012.5 1018.2

1 Température minimale relevée entre 18:00 UTC la veille et 18:00 UTC le jour donné.

2 Température maximale relevée entre 06:00 UTC le jour donné et 06:00 UTC le lendemain.

3 Vent moyen de la journée basé sur les relevés horaires.

4 Ensoleillement en heures relevé entre 06:00 UTC la veille et 06:00 UTC le jour donné.

5 Précipitations totales tombées entre 06:00 UTC la jour donné et 06:00 UTC le lendemain.

Graphiques horaires